Time,TemperatureF,DewpointF,PressureIn,WindDirection,WindDirectionDegrees,WindSpeedMPH,WindSpeedGustMPH,Humidity,HourlyPrecipIn,Conditions,Clouds,dailyrainin,SoftwareType,DateUTC
2013-08-01 00:00:00,79.0,-99.9,30.04,SE,140,13.0,13.0,-999,-99.99,,,-99.99,,2013-08-01 04:00:00,
2013-08-01 00:33:00,79.0,-99.9,30.04,SE,140,13.0,13.0,-999,-99.99,,,-99.99,,2013-08-01 04:33:00,
2013-08-01 00:43:00,79.0,-99.9,30.04,SE,140,13.0,13.0,-999,-99.99,,,-99.99,,2013-08-01 04:43:00,
2013-08-01 00:53:00,79.0,-99.9,30.04,SE,140,13.0,13.0,-999,-99.99,,,-99.99,,2013-08-01 04:53:00,
2013-08-01 01:00:00,79.0,-99.9,30.03,SE,140,9.0,10.0,-999,-99.99,,,-99.99,,2013-08-01 05:00:00,
2013-08-01 01:33:00,79.0,-99.9,30.03,SE,140,9.0,10.0,-999,-99.99,,,-99.99,,2013-08-01 05:33:00,
2013-08-01 01:43:00,79.0,-99.9,30.03,SE,140,9.0,10.0,-999,-99.99,,,-99.99,,2013-08-01 05:43:00,
2013-08-01 01:53:00,79.0,-99.9,30.03,SE,140,9.0,10.0,-999,-99.99,,,-99.99,,2013-08-01 05:53:00,
2013-08-01 02:00:00,80.0,-99.9,30.01,SSE,160,10.0,12.0,-999,-99.99,,,-99.99,,2013-08-01 06:00:00,
2013-08-01 02:33:00,80.0,-99.9,30.01,SSE,160,10.0,12.0,-999,-99.99,,,-99.99,,2013-08-01 06:33:00,
2013-08-01 02:43:00,80.0,-99.9,30.01,SSE,160,10.0,12.0,-999,-99.99,,,-99.99,,2013-08-01 06:43:00,
2013-08-01 02:53:00,80.0,-99.9,30.01,SSE,160,10.0,12.0,-999,-99.99,,,-99.99,,2013-08-01 06:53:00,
2013-08-01 03:33:00,80.0,-99.9,29.99,South,180,8.0,9.0,-999,-99.99,,,-99.99,,2013-08-01 07:33:00,
2013-08-01 03:43:00,80.0,-99.9,29.99,South,180,8.0,9.0,-999,-99.99,,,-99.99,,2013-08-01 07:43:00,
2013-08-01 03:56:00,80.0,-99.9,29.99,South,180,8.0,9.0,-999,-99.99,,,-99.99,,2013-08-01 07:56:00,
2013-08-01 04:00:00,80.0,-99.9,29.99,South,190,10.0,12.0,-999,-99.99,,,-99.99,,2013-08-01 08:00:00,
2013-08-01 04:43:00,80.0,-99.9,29.99,South,190,10.0,12.0,-999,-99.99,,,-99.99,,2013-08-01 08:43:00,
2013-08-01 04:48:00,80.0,-99.9,29.99,South,190,10.0,12.0,-999,-99.99,,,-99.99,,2013-08-01 08:48:00,
2013-08-01 05:00:00,74.0,-99.9,29.99,SSW,210,12.0,14.0,-999,-99.99,,,-99.99,,2013-08-01 09:00:00,
2013-08-01 06:00:00,75.0,-99.9,29.98,West,260,8.0,9.0,-999,-99.99,,,-99.99,,2013-08-01 10:00:00,
2013-08-01 06:50:00,75.0,-99.9,29.98,West,260,8.0,9.0,-999,-99.99,,,-99.99,,2013-08-01 10:50:00,
2013-08-01 07:00:00,75.0,-99.9,30.00,SSW,210,3.0,3.0,-999,-99.99,,,-99.99,,2013-08-01 11:00:00,
2013-08-01 07:48:00,75.0,-99.9,30.00,SSW,210,3.0,3.0,-999,-99.99,,,-99.99,,2013-08-01 11:48:00,
2013-08-01 08:00:00,76.0,-99.9,30.00,SSE,150,5.0,6.0,-999,-99.99,,,-99.99,,2013-08-01 12:00:00,
2013-08-01 08:55:00,76.0,-99.9,30.00,SSE,150,5.0,6.0,-999,-99.99,,,-99.99,,2013-08-01 12:55:00,
2013-08-01 10:00:00,76.0,-99.9,29.98,SSE,150,6.0,6.0,-999,-99.99,,,-99.99,,2013-08-01 14:00:00,
2013-08-01 11:00:00,76.0,-99.9,29.97,SSE,160,5.0,5.0,-999,-99.99,,,-99.99,,2013-08-01 15:00:00,
2013-08-01 12:00:00,74.0,-99.9,29.96,SE,140,10.0,10.0,-999,-99.99,,,-99.99,,2013-08-01 16:00:00,
2013-08-01 12:46:00,74.0,-99.9,29.96,SE,140,10.0,10.0,-999,-99.99,,,-99.99,,2013-08-01 16:46:00,
2013-08-01 12:54:00,74.0,-99.9,29.96,SE,140,10.0,10.0,-999,-99.99,,,-99.99,,2013-08-01 16:54:00,
2013-08-01 13:00:00,75.0,-99.9,29.96,South,180,10.0,12.0,-999,-99.99,,,-99.99,,2013-08-01 17:00:00,
2013-08-01 13:52:00,75.0,-99.9,29.96,South,180,10.0,12.0,-999,-99.99,,,-99.99,,2013-08-01 17:52:00,
2013-08-01 14:00:00,76.0,-99.9,29.94,SW,230,8.0,12.0,-999,-99.99,,,-99.99,,2013-08-01 18:00:00,
2013-08-01 15:00:00,78.0,-99.9,29.92,SSW,210,10.0,13.0,-999,-99.99,,,-99.99,,2013-08-01 19:00:00,
2013-08-01 15:46:00,78.0,-99.9,29.92,SSW,210,10.0,13.0,-999,-99.99,,,-99.99,,2013-08-01 19:46:00,
2013-08-01 16:00:00,78.0,-99.9,29.91,SW,230,13.0,17.0,-999,-99.99,,,-99.99,,2013-08-01 20:00:00,
2013-08-01 16:30:00,78.0,-99.9,29.91,SW,230,13.0,17.0,-999,-99.99,,,-99.99,,2013-08-01 20:30:00,
2013-08-01 16:43:00,78.0,-99.9,29.91,SW,230,13.0,17.0,-999,-99.99,,,-99.99,,2013-08-01 20:43:00,
2013-08-01 16:59:00,78.0,-99.9,29.91,SW,230,13.0,17.0,-999,-99.99,,,-99.99,,2013-08-01 20:59:00,
2013-08-01 17:35:00,80.0,-99.9,29.91,SW,230,16.0,23.0,-999,-99.99,,,-99.99,,2013-08-01 21:35:00,
2013-08-01 17:43:00,80.0,-99.9,29.91,SW,230,16.0,23.0,-999,-99.99,,,-99.99,,2013-08-01 21:43:00,
2013-08-01 18:00:00,80.0,-99.9,29.91,SW,230,14.0,20.0,-999,-99.99,,,-99.99,,2013-08-01 22:00:00,
2013-08-01 18:36:00,80.0,-99.9,29.91,SW,230,14.0,20.0,-999,-99.99,,,-99.99,,2013-08-01 22:36:00,
2013-08-01 19:00:00,80.0,-99.9,29.91,SW,230,16.0,22.0,-999,-99.99,,,-99.99,,2013-08-01 23:00:00,
2013-08-01 19:33:00,80.0,-99.9,29.91,SW,230,16.0,22.0,-999,-99.99,,,-99.99,,2013-08-01 23:33:00,
2013-08-01 19:54:00,80.0,-99.9,29.91,SW,230,16.0,22.0,-999,-99.99,,,-99.99,,2013-08-01 23:54:00,
2013-08-01 20:00:00,80.0,-99.9,29.93,SW,230,17.0,23.0,-999,-99.99,,,-99.99,,2013-08-02 00:00:00,
2013-08-01 20:42:00,80.0,-99.9,29.93,SW,230,17.0,23.0,-999,-99.99,,,-99.99,,2013-08-02 00:42:00,
2013-08-01 20:53:00,80.0,-99.9,29.93,SW,230,17.0,23.0,-999,-99.99,,,-99.99,,2013-08-02 00:53:00,
2013-08-01 21:00:00,79.0,-99.9,29.93,SW,220,16.0,21.0,-999,-99.99,,,-99.99,,2013-08-02 01:00:00,
2013-08-01 21:43:00,79.0,-99.9,29.93,SW,220,16.0,21.0,-999,-99.99,,,-99.99,,2013-08-02 01:43:00,
2013-08-01 22:00:00,79.0,-99.9,29.95,WSW,240,16.0,21.0,-999,-99.99,,,-99.99,,2013-08-02 02:00:00,
2013-08-01 22:45:00,79.0,-99.9,29.95,WSW,240,16.0,21.0,-999,-99.99,,,-99.99,,2013-08-02 02:45:00,
2013-08-01 22:55:00,79.0,-99.9,29.95,WSW,240,16.0,21.0,-999,-99.99,,,-99.99,,2013-08-02 02:55:00,
2013-08-01 23:00:00,79.0,-99.9,29.95,SW,230,15.0,18.0,-999,-99.99,,,-99.99,,2013-08-02 03:00:00,
2013-08-01 23:53:00,79.0,-99.9,29.95,SW,230,15.0,18.0,-999,-99.99,,,-99.99,,2013-08-02 03:53:00,